createdAt,value
2018-08-10T00:00:36.826Z,2.10
2018-08-10T00:05:41.700Z,1.90
2018-08-10T00:10:46.697Z,1.87
2018-08-10T00:15:50.580Z,1.90
2018-08-10T00:20:54.330Z,1.47
2018-08-10T00:25:58.120Z,0.80
2018-08-10T00:31:01.971Z,0.50
2018-08-10T00:36:05.726Z,0.40
2018-08-10T00:41:09.578Z,0.50
2018-08-10T00:46:13.573Z,0.50
2018-08-10T00:51:17.777Z,0.60
2018-08-10T00:56:21.487Z,0.50
2018-08-10T01:01:25.212Z,0.70
2018-08-10T01:06:29.106Z,0.67
2018-08-10T01:11:32.931Z,0.50
2018-08-10T01:16:36.686Z,0.43
2018-08-10T01:21:40.567Z,0.30
2018-08-10T01:26:44.480Z,0.33
2018-08-10T01:31:48.271Z,0.40
2018-08-10T01:36:52.140Z,0.40
2018-08-10T01:41:55.929Z,0.20
2018-08-10T01:46:59.739Z,0.40
2018-08-10T01:52:03.538Z,0.60
2018-08-10T01:57:07.277Z,1.10
2018-08-10T02:02:11.041Z,1.27
2018-08-10T02:07:14.855Z,1.47
2018-08-10T02:12:18.905Z,1.30
2018-08-10T02:17:22.625Z,1.30
2018-08-10T02:22:26.441Z,1.50
2018-08-10T02:27:30.486Z,1.53
2018-08-10T02:32:34.310Z,1.40
2018-08-10T02:37:38.908Z,1.67
2018-08-10T02:42:43.695Z,1.60
2018-08-10T02:47:48.152Z,1.53
2018-08-10T02:52:51.944Z,2.13
2018-08-10T02:57:55.700Z,2.10
2018-08-10T03:02:59.419Z,2.03
2018-08-10T03:08:03.178Z,2.00
2018-08-10T03:13:06.973Z,1.63
2018-08-10T03:18:10.766Z,1.50
2018-08-10T03:23:14.623Z,1.57
2018-08-10T03:28:18.431Z,1.30
2018-08-10T03:33:22.733Z,2.10
2018-08-10T03:38:26.450Z,1.27
2018-08-10T03:43:30.367Z,2.30
2018-08-10T03:48:34.115Z,1.53
2018-08-10T03:53:37.870Z,1.87
2018-08-10T03:58:41.575Z,1.60
2018-08-10T04:03:45.418Z,1.87
2018-08-10T04:08:49.160Z,1.80
2018-08-10T04:13:52.901Z,2.30
2018-08-10T04:18:56.612Z,2.30
2018-08-10T04:24:00.427Z,2.13
2018-08-10T04:29:04.447Z,1.90
2018-08-10T04:34:08.203Z,2.20
2018-08-10T04:39:14.028Z,2.27
2018-08-10T04:44:17.742Z,2.40
2018-08-10T04:49:21.437Z,2.90
2018-08-10T04:54:25.186Z,4.17
2018-08-10T04:59:29.436Z,4.13
2018-08-10T05:04:33.116Z,3.90
2018-08-10T05:09:36.843Z,3.93
2018-08-10T05:14:40.582Z,3.97
2018-08-10T05:19:44.365Z,3.90
2018-08-10T05:24:48.103Z,3.57
2018-08-10T05:29:51.986Z,3.67
2018-08-10T05:34:55.877Z,3.57
2018-08-10T05:39:59.719Z,3.50
2018-08-10T05:45:03.558Z,3.70
2018-08-10T05:50:07.690Z,3.37
2018-08-10T05:55:11.466Z,3.70
2018-08-10T06:00:15.318Z,3.63
2018-08-10T06:05:19.208Z,3.20
2018-08-10T06:10:23.157Z,3.70
2018-08-10T06:15:27.009Z,3.20
2018-08-10T06:20:30.773Z,3.47
2018-08-10T06:25:34.594Z,2.90
2018-08-10T06:30:38.434Z,3.30
2018-08-10T06:35:42.281Z,3.70
2018-08-10T06:40:46.023Z,3.03
2018-08-10T06:45:49.832Z,3.10
2018-08-10T06:50:53.620Z,2.90
2018-08-10T06:55:57.648Z,2.50
2018-08-10T07:01:01.339Z,2.53
2018-08-10T07:06:05.167Z,2.33
2018-08-10T07:11:08.847Z,2.10
2018-08-10T07:16:12.608Z,1.57
2018-08-10T07:21:16.380Z,1.40
2018-08-10T07:26:20.326Z,1.50
2018-08-10T07:31:25.013Z,1.43
2018-08-10T07:36:28.808Z,1.53
2018-08-10T07:41:32.677Z,1.50
2018-08-10T07:46:37.001Z,1.70
2018-08-10T07:51:40.790Z,1.60
2018-08-10T07:56:44.714Z,1.30
2018-08-10T08:01:48.636Z,2.00
2018-08-10T08:06:52.466Z,2.10
2018-08-10T08:11:56.165Z,2.17
2018-08-10T08:17:00.046Z,1.50
2018-08-10T08:22:07.275Z,1.97
2018-08-10T08:27:11.907Z,1.80
2018-08-10T08:32:15.824Z,1.50
2018-08-10T08:37:19.695Z,2.30
2018-08-10T08:42:23.775Z,1.30
2018-08-10T08:47:27.482Z,1.70
2018-08-10T08:52:31.502Z,2.27
2018-08-10T08:57:36.300Z,1.70
2018-08-10T09:02:40.353Z,1.63
2018-08-10T09:07:44.224Z,1.67
2018-08-10T09:12:47.874Z,1.50
2018-08-10T09:17:51.646Z,1.73
2018-08-10T09:22:55.431Z,2.13
2018-08-10T09:27:59.232Z,2.40
2018-08-10T09:33:03.077Z,2.63
2018-08-10T09:38:06.848Z,2.00
2018-08-10T09:43:10.654Z,2.60
2018-08-10T09:48:14.413Z,2.20
2018-08-10T09:53:18.195Z,2.00
2018-08-10T09:58:21.976Z,2.20
2018-08-10T10:03:26.580Z,2.00
2018-08-10T10:08:30.316Z,2.53
2018-08-10T10:13:34.085Z,2.57
2018-08-10T10:18:37.801Z,2.10
2018-08-10T10:23:41.583Z,2.17
2018-08-10T10:28:45.273Z,2.30
2018-08-10T10:33:49.204Z,2.20
2018-08-10T10:38:52.995Z,2.27
2018-08-10T10:43:56.650Z,2.63
2018-08-10T10:49:00.541Z,2.10
2018-08-10T10:54:04.306Z,2.03
2018-08-10T10:59:08.212Z,1.97
2018-08-10T11:04:12.747Z,1.63
2018-08-10T11:09:16.518Z,1.70
2018-08-10T11:14:21.052Z,1.70
2018-08-10T11:19:24.861Z,1.80
2018-08-10T11:24:28.692Z,2.03
2018-08-10T11:29:33.081Z,1.57
2018-08-10T11:34:36.946Z,1.67
2018-08-10T11:39:40.807Z,1.30
2018-08-10T11:44:44.594Z,1.80
2018-08-10T11:49:48.432Z,1.57
2018-08-10T11:54:52.362Z,1.40
2018-08-10T11:59:56.139Z,1.50
2018-08-10T12:05:00.139Z,1.20
2018-08-10T12:10:04.015Z,1.40
2018-08-10T12:15:10.483Z,1.23
2018-08-10T12:20:14.144Z,1.40
2018-08-10T12:25:17.875Z,1.40
2018-08-10T12:30:22.016Z,1.07
2018-08-10T12:35:25.791Z,1.63
2018-08-10T12:40:29.575Z,1.00
2018-08-10T12:45:33.444Z,1.23
2018-08-10T12:50:37.303Z,1.30
2018-08-10T12:55:41.147Z,1.17
2018-08-10T13:00:44.860Z,1.20
2018-08-10T13:05:48.661Z,1.20
2018-08-10T13:10:52.531Z,1.17
2018-08-10T13:15:56.274Z,1.30
2018-08-10T13:21:00.027Z,1.40
2018-08-10T13:26:03.997Z,1.30
2018-08-10T13:31:08.783Z,1.20
2018-08-10T13:36:12.899Z,1.27
2018-08-10T13:41:17.360Z,1.23
2018-08-10T13:46:21.341Z,1.00
2018-08-10T13:51:25.174Z,1.23
2018-08-10T13:56:29.196Z,0.83
2018-08-10T14:01:32.922Z,0.97
2018-08-10T14:06:36.999Z,1.10
2018-08-10T14:11:41.048Z,0.80
2018-08-10T14:16:45.344Z,1.20
2018-08-10T14:21:49.128Z,1.13
2018-08-10T14:26:53.349Z,1.23
2018-08-10T14:31:57.254Z,0.90
2018-08-10T14:37:01.145Z,0.90
2018-08-10T14:42:05.364Z,1.10
2018-08-10T14:47:09.158Z,0.97
2018-08-10T14:52:13.056Z,1.03
2018-08-10T14:57:17.072Z,1.30
2018-08-10T15:02:20.806Z,1.20
2018-08-10T15:07:24.651Z,1.20
2018-08-10T15:12:28.544Z,1.47
2018-08-10T15:17:32.110Z,1.30
2018-08-10T15:22:36.026Z,1.43
2018-08-10T15:27:40.811Z,1.10
2018-08-10T15:32:44.566Z,1.10
2018-08-10T15:37:48.274Z,1.33
2018-08-10T15:42:51.896Z,1.40
2018-08-10T15:47:55.532Z,1.20
2018-08-10T15:52:59.149Z,1.40
2018-08-10T15:58:02.864Z,1.50
2018-08-10T16:03:06.503Z,1.53
2018-08-10T16:08:10.150Z,1.10
2018-08-10T16:13:13.904Z,1.60
2018-08-10T16:18:17.624Z,1.03
2018-08-10T16:23:21.303Z,0.97
2018-08-10T16:28:25.102Z,1.20
2018-08-10T16:33:28.737Z,1.20
2018-08-10T16:38:32.423Z,1.00
2018-08-10T16:43:36.115Z,1.07
2018-08-10T16:48:39.838Z,0.97
2018-08-10T16:53:44.056Z,0.90
2018-08-10T16:58:47.804Z,1.10
2018-08-10T17:03:51.529Z,0.90
2018-08-10T17:08:55.305Z,1.07
2018-08-10T17:13:59.045Z,1.10
2018-08-10T17:19:02.905Z,1.00
2018-08-10T17:24:06.735Z,1.10
2018-08-10T17:29:10.578Z,0.90
2018-08-10T17:34:48.322Z,1.17
2018-08-10T17:39:52.007Z,1.57
2018-08-10T17:44:55.694Z,1.10
2018-08-10T17:49:59.384Z,1.20
2018-08-10T17:55:03.090Z,1.40
2018-08-10T18:00:08.995Z,1.20
2018-08-10T18:05:13.995Z,1.10
2018-08-10T18:10:18.704Z,1.00
2018-08-10T18:15:22.385Z,1.30
2018-08-10T18:20:26.082Z,1.10
2018-08-10T18:25:29.772Z,1.10
2018-08-10T18:30:33.526Z,1.40
2018-08-10T18:35:37.162Z,1.90
2018-08-10T18:40:40.832Z,2.63
2018-08-10T18:45:44.527Z,1.30
2018-08-10T18:50:48.288Z,1.30
2018-08-10T18:55:51.866Z,1.30
2018-08-10T19:00:55.527Z,1.67
2018-08-10T19:05:59.222Z,2.03
2018-08-10T19:11:02.976Z,1.20
2018-08-10T19:16:06.947Z,1.27
2018-08-10T19:21:10.641Z,0.80
2018-08-10T19:26:14.617Z,1.43
2018-08-10T19:31:19.493Z,1.20
2018-08-10T19:36:25.369Z,1.00
2018-08-10T19:41:40.669Z,1.23
2018-08-10T19:52:12.542Z,1.00
2018-08-10T19:57:16.925Z,1.10
2018-08-10T20:02:20.988Z,1.10
2018-08-10T20:07:25.304Z,1.23
2018-08-10T20:12:29.245Z,0.90
2018-08-10T20:17:33.384Z,1.00
2018-08-10T20:22:37.293Z,1.33
2018-08-10T20:27:41.388Z,1.00
2018-08-10T20:32:45.988Z,1.13
2018-08-10T20:37:50.278Z,1.20
2018-08-10T20:42:54.332Z,1.47
2018-08-10T20:47:58.299Z,1.20
2018-08-10T20:53:02.505Z,1.13
2018-08-10T20:58:06.635Z,1.10
2018-08-10T21:03:10.616Z,0.90
2018-08-10T21:08:14.510Z,1.00
2018-08-10T21:13:18.449Z,1.10
2018-08-10T21:18:22.293Z,1.10
2018-08-10T21:23:26.183Z,1.20
2018-08-10T21:28:30.208Z,1.03
2018-08-10T21:33:34.103Z,1.03
2018-08-10T21:38:38.514Z,0.90
2018-08-10T21:43:42.371Z,1.17
2018-08-10T21:48:46.351Z,1.00
2018-08-10T21:53:50.379Z,1.00
2018-08-10T21:58:54.339Z,1.00
2018-08-10T22:03:58.240Z,1.07
2018-08-10T22:09:02.232Z,0.90
2018-08-10T22:14:11.589Z,0.90
2018-08-10T22:19:16.952Z,0.90
2018-08-10T22:24:20.928Z,1.00
2018-08-10T22:29:24.787Z,1.10
2018-08-10T22:34:28.803Z,1.00
2018-08-10T22:39:33.270Z,0.83
2018-08-10T22:44:37.071Z,0.87
2018-08-10T22:49:41.127Z,1.10
2018-08-10T22:54:45.354Z,0.90
2018-08-10T22:59:49.524Z,1.10
2018-08-10T23:04:53.606Z,0.90
2018-08-10T23:09:57.660Z,0.80
2018-08-10T23:15:01.461Z,0.87
2018-08-10T23:20:07.963Z,0.97
2018-08-10T23:25:14.082Z,1.00
2018-08-10T23:30:17.837Z,1.10
2018-08-10T23:35:21.921Z,1.00
2018-08-10T23:40:25.850Z,0.80
2018-08-10T23:45:30.336Z,0.90
2018-08-10T23:50:34.224Z,1.00
2018-08-10T23:55:38.201Z,0.80
